Time;durP1;ratioP1;P1;durP2;ratioP2;P2;SDS_P1;SDS_P2;PMS_P1;PMS_P2;Temp;Humidity;BMP_temperature;BMP_pressure;BME280_temperature;BME280_humidity;BME280_pressure;Samples;Min_cycle;Max_cycle;Signal;HPM_P1;HPM_P2
2021/01/23 00:02:02;;;;;;;3.87;2.97;;;3.00;99.90;;;3.76;100.00;96340.84;5002403;28;20469;-77
2021/01/23 00:04:51;;;;;;;4.33;3.23;;;3.00;99.90;;;3.76;100.00;96342.63;5007775;28;20464;-78
2021/01/23 00:07:32;;;;;;;3.10;2.50;;;3.00;99.90;;;3.77;100.00;96342.47;4998970;28;20472;-77
2021/01/23 00:10:50;;;;;;;4.63;2.77;;;3.00;99.90;;;3.75;100.00;96336.66;5001083;28;21423;-78
2021/01/23 00:13:39;;;;;;;5.67;2.53;;;3.00;99.90;;;3.74;100.00;96349.78;4996424;28;21027;-77
2021/01/23 00:16:22;;;;;;;3.53;2.67;;;3.00;99.90;;;3.77;100.00;96344.25;5001865;28;20545;-78
2021/01/23 00:19:16;;;;;;;4.80;3.20;;;3.10;99.90;;;3.69;100.00;96334.84;4999450;28;20474;-77
2021/01/23 00:21:47;;;;;;;3.93;3.17;;;3.00;99.90;;;3.78;100.00;96343.28;5000059;28;20552;-77
2021/01/23 00:24:15;;;;;;;7.47;3.00;;;3.10;99.90;;;3.80;100.00;96338.69;5000595;28;20467;-78
2021/01/23 00:26:44;;;;;;;5.40;2.90;;;3.00;99.90;;;3.78;100.00;96338.09;4997619;28;20459;-78
2021/01/23 00:29:13;;;;;;;3.53;2.50;;;3.10;99.90;;;3.84;100.00;96334.75;4999763;28;20562;-77
2021/01/23 00:32:28;;;;;;;3.40;2.70;;;3.20;99.90;;;3.83;100.00;96338.31;4999952;28;20535;-78
2021/01/23 00:36:01;;;;;;;3.20;2.77;;;3.20;99.90;;;3.82;100.00;96336.72;5000494;28;20554;-77
2021/01/23 00:38:30;;;;;;;3.63;2.93;;;3.20;99.90;;;3.77;100.00;96334.72;4990120;28;20864;-78
2021/01/23 00:40:58;;;;;;;3.40;2.47;;;3.10;99.90;;;3.76;100.00;96329.72;5000240;28;20470;-78
2021/01/23 00:43:26;;;;;;;4.07;2.60;;;3.00;99.90;;;3.71;100.00;96339.84;5000067;28;20902;-78
2021/01/23 00:45:53;;;;;;;3.53;3.00;;;3.00;99.90;;;3.70;100.00;96339.03;4999850;28;20529;-77
2021/01/23 00:48:21;;;;;;;2.93;2.60;;;2.90;99.90;;;3.65;100.00;96345.72;4999132;28;20470;-77
2021/01/23 00:50:49;;;;;;;3.53;2.63;;;2.90;99.90;;;3.55;100.00;96348.63;5000565;28;20467;-78
2021/01/23 00:53:17;;;;;;;3.13;2.83;;;2.80;99.90;;;3.54;100.00;96339.28;4998289;28;20533;-78
2021/01/23 00:55:44;;;;;;;6.93;3.10;;;2.70;99.90;;;3.54;100.00;96345.25;5000757;28;20463;-78
2021/01/23 00:58:12;;;;;;;3.73;2.90;;;2.70;99.90;;;3.55;100.00;96344.25;5000205;28;20503;-77
2021/01/23 01:00:40;;;;;;;5.60;3.20;;;2.70;99.90;;;3.58;100.00;96345.66;4998423;28;20475;-78
2021/01/23 01:03:07;;;;;;;3.80;3.17;;;2.70;99.90;;;3.65;100.00;96336.19;5000362;28;20552;-78
2021/01/23 01:05:35;;;;;;;3.80;2.70;;;2.90;99.90;;;3.61;100.00;96354.84;4998666;28;20464;-77
2021/01/23 01:08:10;;;;;;;4.60;3.03;;;2.80;99.90;;;3.51;100.00;96352.56;4998277;28;20475;-77
2021/01/23 01:10:42;;;;;;;4.47;2.80;;;2.70;99.90;;;3.50;100.00;96359.53;4999933;28;20514;-77
2021/01/23 01:13:09;;;;;;;5.40;3.60;;;2.70;99.90;;;3.56;100.00;96363.16;4994210;28;20460;-78
2021/01/23 01:15:36;;;;;;;3.33;2.87;;;2.70;99.90;;;3.59;100.00;96367.94;4999065;28;20514;-78
2021/01/23 01:18:05;;;;;;;18.83;3.00;;;2.80;99.90;;;3.54;100.00;96376.25;5000231;28;20868;-77
2021/01/23 01:20:34;;;;;;;5.77;3.00;;;2.70;99.90;;;3.46;100.00;96371.22;4999289;28;20462;-77
2021/01/23 01:23:01;;;;;;;5.30;2.70;;;2.70;99.90;;;3.53;100.00;96372.09;4999033;28;20467;-77
2021/01/23 01:25:29;;;;;;;3.47;2.80;;;2.80;99.90;;;3.47;100.00;96377.97;4996964;28;20972;-77
2021/01/23 01:27:56;;;;;;;4.30;2.83;;;2.70;99.90;;;3.50;100.00;96380.22;4995744;28;20472;-78
2021/01/23 01:30:24;;;;;;;5.43;3.33;;;2.70;99.90;;;3.49;100.00;96385.53;4998267;28;20498;-77
2021/01/23 01:32:51;;;;;;;3.47;2.77;;;2.80;99.90;;;3.45;100.00;96382.53;4996911;28;20528;-78
2021/01/23 01:35:20;;;;;;;6.27;3.20;;;2.70;99.90;;;3.51;100.00;96386.94;4999226;28;20525;-78
2021/01/23 01:37:48;;;;;;;2.90;2.60;;;2.80;99.90;;;3.49;100.00;96388.94;4997340;28;20492;-77
2021/01/23 01:40:16;;;;;;;5.63;3.17;;;2.80;99.90;;;3.50;100.00;96390.53;4997647;28;20490;-78
2021/01/23 01:42:43;;;;;;;4.17;3.13;;;2.80;99.90;;;3.48;100.00;96395.06;4997675;28;20491;-77
2021/01/23 01:45:13;;;;;;;5.33;3.53;;;2.70;99.90;;;3.36;100.00;96396.56;4998515;28;20471;-77
2021/01/23 01:47:42;;;;;;;4.10;3.17;;;2.60;99.90;;;3.39;100.00;96393.59;4999648;28;20565;-78
2021/01/23 01:50:13;;;;;;;3.83;3.00;;;2.60;99.90;;;3.38;100.00;96401.50;4997178;28;20459;-77
2021/01/23 01:52:44;;;;;;;5.37;3.40;;;2.60;99.90;;;3.40;100.00;96400.34;4998381;28;20486;-78
2021/01/23 01:55:13;;;;;;;7.03;3.77;;;2.60;99.90;;;3.40;100.00;96392.59;4998356;28;20463;-78
2021/01/23 01:57:41;;;;;;;4.80;3.40;;;2.60;99.90;;;3.38;100.00;96391.19;4996483;28;20510;-77
2021/01/23 02:00:10;;;;;;;4.03;3.53;;;2.60;99.90;;;3.39;100.00;96392.78;4998371;28;20480;-78
2021/01/23 02:02:57;;;;;;;5.13;3.27;;;2.70;99.90;;;3.42;100.00;96403.56;4999338;28;20970;-78
2021/01/23 02:05:35;;;;;;;9.67;3.80;;;2.70;99.90;;;3.38;100.00;96404.91;4997092;28;20479;-78
2021/01/23 02:08:17;;;;;;;5.43;3.40;;;2.70;99.90;;;3.32;100.00;96408.22;4997693;28;20467;-78
2021/01/23 02:11:01;;;;;;;5.97;3.60;;;2.50;99.90;;;3.33;100.00;96414.97;5000053;28;20510;-78
2021/01/23 02:13:31;;;;;;;4.00;3.20;;;2.50;99.90;;;3.25;100.00;96403.97;5001678;28;21062;-78
2021/01/23 02:16:05;;;;;;;5.23;3.30;;;2.50;99.90;;;3.19;100.00;96405.50;5001702;28;21038;-77
2021/01/23 02:18:48;;;;;;;3.70;3.30;;;2.40;99.90;;;3.17;100.00;96404.88;5000956;28;20506;-77
2021/01/23 02:22:00;;;;;;;6.33;3.70;;;2.30;99.90;;;3.13;100.00;96408.78;5003454;28;20517;-77
2021/01/23 02:24:31;;;;;;;6.00;3.23;;;2.30;99.90;;;3.12;100.00;96414.94;5001945;28;20536;-78
2021/01/23 02:27:20;;;;;;;4.07;3.37;;;2.40;99.90;;;3.03;100.00;96403.91;5002036;28;20518;-78
2021/01/23 02:30:12;;;;;;;12.03;4.03;;;2.30;99.90;;;3.09;100.00;96415.28;5000134;28;20497;-78
2021/01/23 02:32:43;;;;;;;4.17;2.80;;;2.30;99.90;;;3.07;100.00;96406.94;4999363;28;20446;-77
2021/01/23 02:35:14;;;;;;;4.10;3.63;;;2.30;99.90;;;3.00;100.00;96413.81;5002212;28;20468;-78
2021/01/23 02:37:43;;;;;;;7.00;4.37;;;2.20;99.90;;;2.94;100.00;96414.53;5003939;28;20495;-78
2021/01/23 02:40:13;;;;;;;5.00;3.93;;;2.10;99.90;;;2.86;100.00;96422.34;5000934;28;20950;-78
2021/01/23 02:42:41;;;;;;;6.37;3.90;;;2.00;99.90;;;2.91;100.00;96409.72;4998715;28;20944;-77
2021/01/23 02:45:10;;;;;;;5.80;3.80;;;2.10;99.90;;;2.88;100.00;96410.09;5002135;28;21047;-78
2021/01/23 02:47:40;;;;;;;3.40;3.10;;;2.00;99.90;;;2.88;100.00;96410.09;5001165;28;20478;-77
2021/01/23 02:50:10;;;;;;;8.50;3.27;;;2.10;99.90;;;2.83;100.00;96415.78;5000932;28;20497;-78
2021/01/23 02:53:05;;;;;;;5.43;3.90;;;2.00;99.90;;;2.86;100.00;96412.03;5001730;28;20483;-77
2021/01/23 02:55:39;;;;;;;5.43;3.50;;;2.00;99.90;;;2.83;100.00;96420.13;5001939;28;22930;-77
2021/01/23 02:58:10;;;;;;;9.23;3.60;;;2.00;99.90;;;2.86;100.00;96420.56;5001594;28;20556;-78
2021/01/23 03:00:39;;;;;;;6.60;4.00;;;2.00;99.90;;;2.88;100.00;96415.25;5001665;28;20833;-77
2021/01/23 03:03:09;;;;;;;5.30;3.70;;;2.10;99.90;;;2.81;100.00;96424.69;5002279;28;20470;-78
2021/01/23 03:05:39;;;;;;;5.77;3.57;;;2.00;99.90;;;2.75;100.00;96413.28;5000975;28;20468;-78
2021/01/23 03:08:07;;;;;;;7.40;5.10;;;1.90;99.90;;;2.78;100.00;96414.69;5002176;28;20456;-77
2021/01/23 03:10:37;;;;;;;4.97;3.60;;;1.90;99.90;;;2.79;100.00;96409.38;5000684;28;20468;-77
2021/01/23 03:13:06;;;;;;;7.27;4.17;;;2.00;99.90;;;2.73;100.00;96406.72;5002287;28;20514;-78
2021/01/23 03:15:34;;;;;;;8.70;4.20;;;1.90;99.90;;;2.71;100.00;96408.69;5002135;28;20463;-78
2021/01/23 03:18:04;;;;;;;8.00;4.10;;;1.90;99.90;;;2.68;100.00;96414.16;5001999;28;20536;-78
2021/01/23 03:20:33;;;;;;;8.50;3.57;;;1.80;99.90;;;2.67;100.00;96412.59;4999409;28;20470;-78
2021/01/23 03:23:02;;;;;;;5.10;4.10;;;1.90;99.90;;;2.70;100.00;96418.19;5001352;28;20459;-78
2021/01/23 03:25:30;;;;;;;6.60;4.10;;;1.80;99.90;;;2.70;100.00;96422.53;5003029;28;20452;-78
2021/01/23 03:27:58;;;;;;;6.00;3.87;;;1.90;99.90;;;2.64;100.00;96423.28;5001515;28;20526;-77
2021/01/23 03:30:27;;;;;;;3.90;3.50;;;1.90;99.90;;;2.58;100.00;96424.75;5000766;28;21019;-78
2021/01/23 03:32:55;;;;;;;4.73;3.63;;;1.90;99.90;;;2.65;100.00;96424.84;5002311;28;20483;-78
2021/01/23 03:35:25;;;;;;;7.13;4.53;;;1.90;99.90;;;2.67;100.00;96422.91;5000902;28;20483;-77
2021/01/23 03:37:53;;;;;;;6.23;4.60;;;1.90;99.90;;;2.60;100.00;96422.00;5001107;28;20503;-77
2021/01/23 03:40:21;;;;;;;5.00;3.77;;;1.80;99.90;;;2.64;100.00;96426.63;4999855;28;20464;-77
2021/01/23 03:42:49;;;;;;;7.27;4.13;;;1.80;99.90;;;2.61;100.00;96429.56;5002599;28;20537;-77
2021/01/23 03:45:17;;;;;;;7.10;4.80;;;1.80;99.90;;;2.59;100.00;96422.97;5000097;28;20470;-77
2021/01/23 03:47:44;;;;;;;5.73;3.90;;;1.80;99.90;;;2.49;100.00;96426.63;5003006;28;20468;-78
2021/01/23 03:50:13;;;;;;;6.30;3.83;;;1.70;99.90;;;2.60;100.00;96427.19;5001609;28;20472;-77
2021/01/23 03:52:41;;;;;;;7.07;4.10;;;1.90;99.90;;;2.62;100.00;96427.78;4999943;28;20575;-78
2021/01/23 03:55:11;;;;;;;7.27;4.20;;;1.80;99.90;;;2.59;100.00;96420.41;5000876;28;20470;-78
2021/01/23 03:57:38;;;;;;;5.30;3.93;;;1.80;99.90;;;2.56;100.00;96418.19;5001632;28;20501;-77
2021/01/23 04:00:08;;;;;;;5.13;4.13;;;1.70;99.90;;;2.56;100.00;96413.03;4999706;28;20475;-78
2021/01/23 04:02:36;;;;;;;5.40;4.10;;;1.70;99.90;;;2.58;100.00;96416.22;5002915;28;21010;-77
2021/01/23 04:05:06;;;;;;;7.40;3.90;;;1.80;99.90;;;2.48;100.00;96419.88;4999193;28;20888;-78
2021/01/23 04:07:34;;;;;;;8.97;4.50;;;1.70;99.90;;;2.51;100.00;96409.19;5001287;28;20458;-77
2021/01/23 04:10:01;;;;;;;6.37;3.43;;;1.80;99.90;;;2.53;100.00;96414.19;4999581;28;20533;-77
2021/01/23 04:12:32;;;;;;;4.67;3.70;;;1.80;99.90;;;2.58;100.00;96403.31;5001556;28;20563;-77
2021/01/23 04:15:00;;;;;;;3.83;3.13;;;1.90;99.90;;;2.59;100.00;96402.34;5000377;28;20475;-78
2021/01/23 04:17:27;;;;;;;6.23;3.60;;;2.00;99.90;;;2.60;100.00;96396.22;5001631;28;20494;-78
2021/01/23 04:19:56;;;;;;;5.80;4.27;;;2.00;99.90;;;2.61;100.00;96400.38;5002348;28;20458;-78
2021/01/23 04:22:23;;;;;;;6.87;3.87;;;1.90;99.90;;;2.65;100.00;96399.84;4998851;28;20530;-78
2021/01/23 04:24:51;;;;;;;5.23;4.00;;;2.00;99.90;;;2.65;100.00;96393.88;5000839;28;20463;-78
2021/01/23 04:27:18;;;;;;;10.83;4.40;;;2.00;99.90;;;2.69;100.00;96379.66;5001270;28;20464;-77
2021/01/23 04:29:48;;;;;;;7.47;4.93;;;2.10;99.90;;;2.74;100.00;96385.09;5001741;28;20498;-78
2021/01/23 04:32:15;;;;;;;17.83;5.73;;;2.10;99.90;;;2.76;100.00;96380.53;5000473;28;20462;-77
2021/01/23 04:34:43;;;;;;;13.00;5.90;;;2.20;99.90;;;2.83;100.00;96384.00;5000734;28;20998;-77
2021/01/23 04:37:10;;;;;;;10.63;5.63;;;2.30;99.90;;;2.90;100.00;96384.88;4999277;28;20464;-77
2021/01/23 04:39:38;;;;;;;8.83;5.07;;;2.40;99.90;;;2.92;100.00;96370.81;4996523;28;20814;-77
2021/01/23 04:42:07;;;;;;;9.10;6.27;;;2.30;99.90;;;2.97;100.00;96367.69;5000670;28;20495;-79
2021/01/23 04:44:35;;;;;;;13.40;5.70;;;2.40;99.90;;;3.04;100.00;96368.56;5000318;28;20556;-77
2021/01/23 04:47:05;;;;;;;10.17;5.20;;;2.40;99.90;;;3.10;100.00;96373.00;4997211;28;20836;-77
2021/01/23 04:49:34;;;;;;;11.57;5.70;;;2.50;99.90;;;3.15;100.00;96373.28;4998621;28;20531;-78
2021/01/23 04:52:06;;;;;;;7.23;4.83;;;2.50;99.90;;;3.18;100.00;96370.31;5000654;28;20475;-77
2021/01/23 04:54:35;;;;;;;13.13;7.17;;;2.50;99.90;;;3.22;100.00;96376.72;4999239;28;20460;-77
2021/01/23 04:57:04;;;;;;;10.23;6.07;;;2.50;99.90;;;3.25;100.00;96371.19;4998994;28;20479;-78
2021/01/23 04:59:32;;;;;;;10.23;5.80;;;2.60;99.90;;;3.25;100.00;96384.09;5000062;28;20501;-78
2021/01/23 05:02:19;;;;;;;9.07;5.57;;;2.60;99.90;;;3.29;100.00;96382.75;5000907;28;20471;-78
2021/01/23 05:04:51;;;;;;;12.03;6.10;;;2.70;99.90;;;3.31;100.00;96377.41;5001338;28;20447;-78
2021/01/23 05:07:31;;;;;;;12.97;6.87;;;2.70;99.90;;;3.34;100.00;96380.41;5000107;28;20506;-79
2021/01/23 05:10:12;;;;;;;9.47;5.97;;;2.70;99.90;;;3.39;100.00;96377.28;5001140;28;20570;-78
2021/01/23 05:12:42;;;;;;;8.00;5.33;;;2.80;99.90;;;3.40;100.00;96369.34;5001463;28;20467;-78
2021/01/23 05:15:13;;;;;;;13.03;5.87;;;2.80;99.90;;;3.44;100.00;96370.59;4999218;28;20467;-77
2021/01/23 05:17:53;;;;;;;11.87;6.27;;;2.90;99.90;;;3.48;100.00;96369.22;4999764;28;20494;-78
2021/01/23 05:20:36;;;;;;;7.90;5.33;;;3.00;99.90;;;3.51;100.00;96376.63;4999629;28;20462;-78
2021/01/23 05:23:06;;;;;;;9.80;5.83;;;3.00;99.90;;;3.51;100.00;96376.63;5000260;28;20443;-78
2021/01/23 05:25:37;;;;;;;8.63;5.20;;;3.00;99.90;;;3.53;100.00;96371.28;5000407;28;20513;-78
2021/01/23 05:28:06;;;;;;;10.97;4.20;;;2.90;99.90;;;3.59;100.00;96377.47;5000607;28;20448;-77
2021/01/23 05:30:46;;;;;;;6.77;4.23;;;3.10;99.90;;;3.51;100.00;96366.28;4998817;28;20479;-78
2021/01/23 05:33:17;;;;;;;11.70;5.70;;;3.00;99.90;;;3.59;100.00;96367.16;4998867;28;20462;-78
2021/01/23 05:35:56;;;;;;;12.90;5.57;;;3.00;99.90;;;3.56;100.00;96365.75;4999211;28;20448;-78
2021/01/23 05:38:28;;;;;;;10.33;5.30;;;3.00;99.90;;;3.60;100.00;96366.97;4998994;28;20548;-78
2021/01/23 05:40:58;;;;;;;11.07;6.57;;;3.00;99.90;;;3.63;100.00;96368.38;4995971;28;20462;-78
2021/01/23 05:43:31;;;;;;;16.00;5.80;;;3.00;99.90;;;3.57;100.00;96363.97;4998608;28;20451;-78
2021/01/23 05:46:02;;;;;;;9.07;4.93;;;2.90;99.90;;;3.59;100.00;96351.63;4996863;28;20459;-78
2021/01/23 05:48:31;;;;;;;9.80;5.40;;;3.00;99.90;;;3.59;100.00;96357.63;4997958;28;20455;-78
2021/01/23 05:50:59;;;;;;;6.67;5.20;;;2.90;99.90;;;3.62;100.00;96364.19;4999117;28;20467;-78
2021/01/23 05:53:26;;;;;;;7.73;5.00;;;3.00;99.90;;;3.67;100.00;96354.09;4999828;28;20472;-78
2021/01/23 05:55:54;;;;;;;9.10;5.40;;;3.10;99.90;;;3.71;100.00;96353.56;4999913;28;20463;-79
2021/01/23 05:58:22;;;;;;;7.97;5.57;;;3.10;99.90;;;3.73;100.00;96356.75;5000010;28;20967;-78
2021/01/23 06:00:53;;;;;;;6.73;4.83;;;3.10;99.90;;;3.69;100.00;96357.28;4998489;28;20534;-78
2021/01/23 06:03:22;;;;;;;9.87;5.57;;;3.00;99.90;;;3.69;100.00;96365.03;4999928;28;20456;-78
2021/01/23 06:05:55;;;;;;;9.60;5.50;;;3.10;99.90;;;3.70;100.00;96356.31;4999820;28;21075;-78
2021/01/23 06:08:40;;;;;;;6.23;4.90;;;3.10;99.90;;;3.74;100.00;96353.19;4999906;28;20509;-79
2021/01/23 06:11:39;;;;;;;10.37;5.57;;;3.20;99.90;;;3.78;100.00;96346.66;4999395;28;20467;-78
2021/01/23 06:14:07;;;;;;;8.37;4.93;;;3.20;99.90;;;3.82;100.00;96342.69;5000685;28;20513;-78
2021/01/23 06:16:40;;;;;;;7.73;4.80;;;3.20;99.90;;;3.81;100.00;96351.47;4999783;28;20523;-78
2021/01/23 06:19:39;;;;;;;10.40;5.87;;;3.20;99.90;;;3.85;100.00;96346.72;4999396;28;20495;-78
2021/01/23 06:22:10;;;;;;;9.43;6.30;;;3.20;99.90;;;3.89;100.00;96355.66;5000235;28;21003;-78
2021/01/23 06:24:55;;;;;;;13.90;5.90;;;3.30;99.90;;;3.87;100.00;96352.47;5000858;28;20918;-79
2021/01/23 06:27:47;;;;;;;10.87;6.60;;;3.40;99.90;;;3.88;100.00;96347.13;4999800;28;20461;-79
2021/01/23 06:30:31;;;;;;;10.83;6.93;;;3.30;99.90;;;3.85;100.00;96357.06;4999961;28;20487;-78
2021/01/23 06:32:58;;;;;;;10.03;6.50;;;3.20;99.90;;;3.89;100.00;96353.88;4999823;28;20458;-78
2021/01/23 06:35:26;;;;;;;9.80;6.77;;;3.30;99.90;;;3.87;100.00;96349.91;4999427;28;20455;-78
2021/01/23 06:38:15;;;;;;;9.40;6.30;;;3.30;99.90;;;3.85;100.00;96351.88;4999848;28;20498;-78
2021/01/23 06:40:42;;;;;;;10.17;6.20;;;3.40;99.90;;;3.85;100.00;96362.22;4999701;28;20462;-78
2021/01/23 06:43:10;;;;;;;8.83;6.00;;;3.40;99.90;;;3.83;100.00;96359.00;4998466;28;20455;-78
2021/01/23 06:45:39;;;;;;;8.33;6.20;;;3.30;99.90;;;3.83;100.00;96359.00;5000073;28;20928;-78
2021/01/23 06:48:09;;;;;;;9.77;6.43;;;3.40;99.90;;;3.83;100.00;96354.63;4999140;28;20459;-78
2021/01/23 06:50:41;;;;;;;12.20;6.77;;;3.30;99.90;;;3.84;100.00;96350.28;4999960;28;20458;-79
2021/01/23 06:53:22;;;;;;;8.33;6.00;;;3.30;99.90;;;3.81;100.00;96353.25;4998596;28;20478;-79
2021/01/23 06:55:53;;;;;;;9.57;6.80;;;3.20;99.90;;;3.76;100.00;96350.41;4999501;28;20482;-78
2021/01/23 06:58:24;;;;;;;10.07;6.70;;;3.10;99.90;;;3.78;100.00;96346.66;4999413;28;21014;-78
2021/01/23 07:00:54;;;;;;;7.40;5.80;;;3.10;99.90;;;3.79;100.00;96344.84;5003101;28;20818;-78
2021/01/23 07:03:22;;;;;;;10.47;7.00;;;3.10;99.90;;;3.82;100.00;96347.06;5002720;28;20460;-78
2021/01/23 07:05:53;;;;;;;10.57;6.63;;;3.10;99.90;;;3.84;100.00;96345.09;5003202;28;20449;-78
2021/01/23 07:08:27;;;;;;;13.53;6.63;;;3.20;99.90;;;3.85;100.00;96346.72;5002652;28;20791;-80
2021/01/23 07:11:13;;;;;;;11.70;6.83;;;3.20;99.90;;;3.86;100.00;96351.69;5002950;28;20475;-78
2021/01/23 07:13:58;;;;;;;16.17;7.10;;;3.20;99.90;;;3.87;100.00;96357.66;5003007;28;20475;-79
2021/01/23 07:16:28;;;;;;;11.33;6.23;;;3.30;99.90;;;3.80;100.00;96355.00;5002773;28;20470;-79
2021/01/23 07:18:58;;;;;;;12.70;7.60;;;3.10;99.90;;;3.83;100.00;96348.66;5002435;28;20491;-78
2021/01/23 07:21:27;;;;;;;15.50;7.10;;;3.20;99.90;;;3.89;100.00;96350.50;5003446;28;20498;-78
2021/01/23 07:23:57;;;;;;;9.63;6.23;;;3.20;99.90;;;3.90;100.00;96354.69;5002973;28;20455;-78
2021/01/23 07:26:26;;;;;;;13.10;7.50;;;3.20;99.90;;;3.91;100.00;96356.28;5003313;28;20447;-79
2021/01/23 07:28:57;;;;;;;11.20;8.07;;;3.30;99.90;;;3.91;100.00;96353.72;5001437;28;20504;-79
2021/01/23 07:31:27;;;;;;;9.63;6.97;;;3.20;99.90;;;3.95;100.00;96354.94;5002387;28;20459;-80
2021/01/23 07:33:59;;;;;;;14.03;7.53;;;3.30;99.90;;;3.95;100.00;96358.31;5002531;28;20804;-78
2021/01/23 07:36:38;;;;;;;11.20;6.90;;;3.30;99.90;;;3.99;100.00;96358.75;5002550;28;20451;-78
2021/01/23 07:39:10;;;;;;;12.40;7.70;;;3.30;99.90;;;4.00;100.00;96355.16;5002519;28;20509;-78
2021/01/23 07:41:41;;;;;;;18.30;8.30;;;3.40;99.90;;;4.01;100.00;96351.59;5001104;28;20499;-78
2021/01/23 07:44:12;;;;;;;12.20;6.70;;;3.50;99.90;;;3.92;100.00;96350.91;5003014;28;20455;-78
2021/01/23 07:46:43;;;;;;;11.10;6.80;;;3.40;99.90;;;3.95;100.00;96348.00;5001989;28;20447;-78
2021/01/23 07:49:21;;;;;;;11.70;7.37;;;3.30;99.90;;;3.99;100.00;96345.81;5002161;28;20457;-78
2021/01/23 07:51:49;;;;;;;15.73;9.53;;;3.30;99.90;;;4.03;100.00;96345.25;5001804;28;20456;-78
2021/01/23 07:54:18;;;;;;;16.60;8.93;;;3.40;99.90;;;4.07;100.00;96346.47;4999519;28;20452;-78
2021/01/23 07:56:56;;;;;;;12.50;8.10;;;3.50;99.90;;;4.11;100.00;96331.38;5001882;28;20869;-79
2021/01/23 07:59:43;;;;;;;13.20;7.73;;;3.50;99.90;;;4.13;100.00;96333.78;5001608;28;20491;-79
2021/01/23 08:02:11;;;;;;;17.30;9.27;;;3.60;99.90;;;4.11;100.00;96339.13;4999833;28;21017;-78
2021/01/23 08:04:40;;;;;;;18.07;9.47;;;3.60;99.90;;;4.11;100.00;96328.00;5000965;28;20526;-78
2021/01/23 08:07:33;;;;;;;23.33;9.13;;;3.50;99.90;;;4.11;100.00;96328.78;4999109;28;20987;-79
2021/01/23 08:10:14;;;;;;;20.13;9.97;;;3.40;99.90;;;4.15;100.00;96332.59;4992247;28;20941;-78
2021/01/23 08:12:55;;;;;;;22.03;8.53;;;3.60;99.90;;;4.13;100.00;96337.16;5000998;28;20849;-78
2021/01/23 08:15:25;;;;;;;13.57;8.50;;;3.40;99.90;;;4.15;100.00;96329.22;5002188;28;21136;-79
2021/01/23 08:17:55;;;;;;;15.90;9.20;;;3.60;99.90;;;4.17;100.00;96325.44;5001275;28;20448;-78
2021/01/23 08:20:35;;;;;;;12.13;8.83;;;3.50;99.90;;;4.16;100.00;96326.44;5001344;28;20458;-78
2021/01/23 08:23:07;;;;;;;16.33;9.73;;;3.50;99.90;;;4.21;100.00;96323.28;5002387;28;20963;-79
2021/01/23 08:25:39;;;;;;;16.87;9.40;;;3.50;99.90;;;4.22;100.00;96323.09;5001070;28;20455;-78
2021/01/23 08:28:08;;;;;;;16.37;9.47;;;3.50;99.90;;;4.27;100.00;96325.91;5001601;28;20505;-78
2021/01/23 08:30:36;;;;;;;17.13;8.90;;;3.60;99.90;;;4.29;100.00;96321.34;5001525;28;20475;-78
2021/01/23 08:33:07;;;;;;;19.77;9.30;;;3.80;99.90;;;4.28;100.00;96322.34;5001601;28;20576;-78
2021/01/23 08:35:37;;;;;;;17.70;9.60;;;3.80;99.90;;;4.30;100.00;96312.59;5002266;28;20477;-79
2021/01/23 08:38:06;;;;;;;21.23;9.90;;;3.70;99.90;;;4.33;100.00;96314.00;5001308;28;20530;-78
2021/01/23 08:40:33;;;;;;;13.97;8.87;;;3.80;99.90;;;4.35;100.00;96318.00;5001088;28;20475;-78
2021/01/23 08:43:02;;;;;;;17.23;9.50;;;3.70;99.90;;;4.36;100.00;96311.03;5001377;28;20456;-78
2021/01/23 08:45:30;;;;;;;12.00;9.27;;;3.80;99.90;;;4.36;100.00;96306.66;5000689;28;20451;-79
2021/01/23 08:47:57;;;;;;;14.33;7.00;;;3.90;99.90;;;4.30;100.00;96317.78;5001528;28;20456;-78
2021/01/23 08:50:25;;;;;;;13.20;7.60;;;3.70;99.90;;;4.35;100.00;96323.16;5000800;28;20940;-78
2021/01/23 08:52:53;;;;;;;12.37;7.70;;;3.80;99.90;;;4.36;100.00;96309.25;4999967;28;21022;-78
2021/01/23 08:55:20;;;;;;;13.10;7.87;;;3.80;99.90;;;4.37;100.00;96321.19;4996147;28;20454;-78
2021/01/23 08:57:48;;;;;;;12.40;8.20;;;3.70;99.90;;;4.38;100.00;96312.44;5000473;28;20478;-78
2021/01/23 09:00:18;;;;;;;12.33;7.23;;;3.80;99.90;;;4.41;100.00;96316.41;5000480;28;20511;-78
2021/01/23 09:02:45;;;;;;;11.40;7.17;;;3.90;99.90;;;4.40;100.00;96315.66;5000739;28;20448;-78
2021/01/23 09:05:17;;;;;;;12.13;7.40;;;3.90;99.90;;;4.36;100.00;96314.44;5001723;28;20447;-78
2021/01/23 09:07:44;;;;;;;12.63;6.97;;;3.80;99.90;;;4.39;100.00;96310.66;5000899;28;20456;-79
2021/01/23 09:10:13;;;;;;;10.30;7.13;;;3.90;99.90;;;4.42;100.00;96305.91;4999468;28;20478;-78
2021/01/23 09:12:44;;;;;;;11.87;7.67;;;3.90;99.90;;;4.47;100.00;96302.75;5000529;28;20546;-79
2021/01/23 09:15:13;;;;;;;11.30;6.30;;;3.90;99.90;;;4.48;100.00;96310.28;5001171;28;20886;-79
2021/01/23 09:17:44;;;;;;;11.00;6.70;;;3.90;99.90;;;4.52;100.00;96301.16;5000593;28;20535;-79
2021/01/23 09:20:13;;;;;;;21.37;7.10;;;4.00;99.90;;;4.53;100.00;96305.34;4998677;28;20514;-78
2021/01/23 09:22:41;;;;;;;13.67;6.10;;;4.00;99.90;;;4.56;100.00;96299.00;5000766;28;20563;-78
2021/01/23 09:25:11;;;;;;;10.50;6.17;;;4.10;99.90;;;4.49;100.00;96296.38;4998426;28;20454;-79
2021/01/23 09:27:38;;;;;;;8.30;6.00;;;3.90;99.90;;;4.49;100.00;96298.97;5000738;28;20462;-78
2021/01/23 09:30:07;;;;;;;9.53;5.50;;;3.90;99.90;;;4.50;100.00;96294.59;5000457;28;21022;-78
2021/01/23 09:32:35;;;;;;;10.30;5.83;;;4.00;99.90;;;4.50;100.00;96290.22;5000787;28;20462;-79
2021/01/23 09:35:06;;;;;;;6.83;5.30;;;4.10;99.90;;;4.54;100.00;96288.84;4999270;28;20829;-78
2021/01/23 09:37:33;;;;;;;9.07;5.37;;;4.00;99.90;;;4.56;100.00;96278.28;5000377;28;20462;-78
2021/01/23 09:40:02;;;;;;;7.90;4.30;;;4.00;99.90;;;4.60;100.00;96278.69;5000172;28;20507;-79
2021/01/23 09:43:33;;;;;;;7.93;5.00;;;4.10;99.90;;;4.61;100.00;96278.53;4995738;28;20955;-79
2021/01/23 09:46:46;;;;;;;5.03;4.10;;;4.10;99.90;;;4.67;100.00;96277.75;4999935;28;20447;-79
2021/01/23 09:49:23;;;;;;;5.03;3.63;;;4.10;99.90;;;4.70;100.00;96276.53;4995430;28;20435;-79
2021/01/23 09:51:56;;;;;;;10.60;4.20;;;4.10;99.90;;;4.73;100.00;96269.19;5000155;28;20459;-79
2021/01/23 09:54:26;;;;;;;9.70;4.67;;;4.20;99.90;;;4.79;100.00;96272.81;4998373;28;20994;-79
2021/01/23 09:57:07;;;;;;;5.00;3.60;;;4.30;99.90;;;4.84;100.00;96270.41;5000537;28;20588;-79
2021/01/23 09:59:35;;;;;;;4.90;3.40;;;4.40;99.90;;;4.85;100.00;96270.22;5000750;28;20589;-79
2021/01/23 10:02:03;;;;;;;7.77;4.57;;;4.30;99.90;;;4.77;100.00;96264.41;5000070;28;20470;-78
2021/01/23 10:04:31;;;;;;;5.80;4.03;;;4.10;99.90;;;4.86;100.00;96263.28;4999875;28;20809;-79
2021/01/23 10:07:00;;;;;;;10.10;4.20;;;4.20;99.90;;;4.88;100.00;96259.47;4996747;28;20513;-78
2021/01/23 10:09:28;;;;;;;10.30;3.97;;;4.30;99.90;;;4.95;100.00;96256.91;5000419;28;20456;-78
2021/01/23 10:11:57;;;;;;;5.87;3.63;;;4.40;99.90;;;5.01;100.00;96262.09;4996550;28;20459;-79
2021/01/23 10:14:25;;;;;;;8.70;3.90;;;4.50;99.90;;;4.98;100.00;96251.34;5000058;28;20459;-78
2021/01/23 10:16:54;;;;;;;9.30;4.33;;;4.50;99.90;;;4.90;100.00;96259.28;4999083;28;20444;-78
2021/01/23 10:19:22;;;;;;;5.43;3.87;;;4.30;99.90;;;4.92;100.00;96246.94;5001109;28;20498;-78
2021/01/23 10:21:50;;;;;;;4.30;3.40;;;4.30;99.90;;;4.98;100.00;96239.19;4999760;28;20456;-79
2021/01/23 10:24:19;;;;;;;4.90;3.20;;;4.30;99.90;;;5.03;100.00;96243.78;4999558;28;20448;-78
2021/01/23 10:26:47;;;;;;;3.97;3.43;;;4.40;99.90;;;5.06;100.00;96233.03;4997780;28;20506;-79
2021/01/23 10:29:15;;;;;;;6.23;3.90;;;4.40;99.90;;;5.14;100.00;96222.44;4999664;28;20514;-78
2021/01/23 10:31:43;;;;;;;7.40;4.00;;;4.60;99.90;;;5.22;100.00;96211.91;4999800;28;20460;-79
2021/01/23 10:34:11;;;;;;;8.87;3.87;;;4.70;99.90;;;5.27;100.00;96214.72;5001010;28;20525;-79
2021/01/23 10:36:39;;;;;;;15.53;3.63;;;4.80;99.90;;;5.34;100.00;96205.16;5004210;28;20861;-78
2021/01/23 10:39:11;;;;;;;6.10;3.70;;;4.90;99.90;;;5.37;100.00;96209.94;5003456;28;20510;-79
2021/01/23 10:41:39;;;;;;;9.33;3.80;;;5.00;99.90;;;5.38;100.00;96211.50;5003115;28;20971;-78
2021/01/23 10:44:07;;;;;;;6.90;3.80;;;4.90;99.90;;;5.39;100.00;96202.75;5002214;28;20551;-79
2021/01/23 10:46:35;;;;;;;10.40;4.47;;;4.90;99.90;;;5.44;100.00;96205.53;5003085;28;20498;-79